createdAt,value
2022-08-18T00:01:22.470Z,15.27
2022-08-18T00:03:55.864Z,15.87
2022-08-18T00:06:27.913Z,15.47
2022-08-18T00:08:56.028Z,15.87
2022-08-18T00:11:23.805Z,16.17
2022-08-18T00:13:50.969Z,16.67
2022-08-18T00:16:18.096Z,16.23
2022-08-18T00:18:52.501Z,16.97
2022-08-18T00:21:19.897Z,17.53
2022-08-18T00:23:47.016Z,16.43
2022-08-18T00:26:14.149Z,16.73
2022-08-18T00:28:41.267Z,18.40
2022-08-18T00:31:08.424Z,17.17
2022-08-18T00:33:35.581Z,16.53
2022-08-18T00:36:02.727Z,17.43
2022-08-18T00:38:29.860Z,16.67
2022-08-18T00:40:57.599Z,18.57
2022-08-18T00:43:32.696Z,18.23
2022-08-18T00:46:00.624Z,17.63
2022-08-18T00:48:29.418Z,17.73
2022-08-18T00:50:58.540Z,17.43
2022-08-18T00:53:39.342Z,17.97
2022-08-18T00:56:11.842Z,18.27
2022-08-18T00:58:45.058Z,17.90
2022-08-18T01:01:13.030Z,17.13
2022-08-18T01:03:40.762Z,16.67
2022-08-18T01:06:17.628Z,16.80
2022-08-18T01:08:44.873Z,16.33
2022-08-18T01:11:13.747Z,17.10
2022-08-18T01:13:41.973Z,16.50
2022-08-18T01:16:28.249Z,17.17
2022-08-18T01:19:14.174Z,17.37
2022-08-18T01:21:53.678Z,17.53
2022-08-18T01:24:22.342Z,17.27
2022-08-18T01:26:50.459Z,19.20
2022-08-18T01:29:19.659Z,18.90
2022-08-18T01:31:55.480Z,18.33
2022-08-18T01:34:24.598Z,19.80
2022-08-18T01:36:53.038Z,20.17
2022-08-18T01:40:59.577Z,20.83
2022-08-18T01:42:07.832Z,22.13
2022-08-18T01:44:35.189Z,21.50
2022-08-18T01:47:02.276Z,21.30
2022-08-18T01:49:29.434Z,23.37
2022-08-18T01:51:56.612Z,22.80
2022-08-18T01:54:23.985Z,23.77
2022-08-18T01:56:52.620Z,24.27
2022-08-18T01:59:19.921Z,26.57
2022-08-18T02:01:50.395Z,27.57
2022-08-18T02:04:35.129Z,28.33
2022-08-18T02:07:04.776Z,27.23
2022-08-18T02:09:32.066Z,29.27
2022-08-18T02:12:00.197Z,29.20
2022-08-18T02:14:27.635Z,30.47
2022-08-18T02:17:02.537Z,26.63
2022-08-18T02:19:33.999Z,27.97
2022-08-18T02:22:01.137Z,27.60
2022-08-18T02:24:28.308Z,27.37
2022-08-18T02:26:55.485Z,27.50
2022-08-18T02:29:22.628Z,27.10
2022-08-18T02:31:49.719Z,27.23
2022-08-18T02:34:17.294Z,26.90
2022-08-18T02:36:44.405Z,26.30
2022-08-18T02:39:11.685Z,26.03
2022-08-18T02:41:38.800Z,26.37
2022-08-18T02:44:07.200Z,24.27
2022-08-18T02:46:34.542Z,24.17
2022-08-18T02:49:01.817Z,26.27
2022-08-18T02:51:29.072Z,24.53
2022-08-18T02:53:59.593Z,22.97
2022-08-18T02:56:40.812Z,24.43
2022-08-18T02:59:11.556Z,21.97
2022-08-18T03:01:40.292Z,21.37
2022-08-18T03:04:08.580Z,22.70
2022-08-18T03:06:37.371Z,22.03
2022-08-18T03:09:05.216Z,22.50
2022-08-18T03:11:32.356Z,21.43
2022-08-18T03:14:00.444Z,23.87
2022-08-18T03:16:27.592Z,22.23
2022-08-18T03:18:54.844Z,22.83
2022-08-18T03:21:23.077Z,25.13
2022-08-18T03:24:01.480Z,24.23
2022-08-18T03:26:30.927Z,24.40
2022-08-18T03:28:59.876Z,25.33
2022-08-18T03:31:28.275Z,25.63
2022-08-18T03:33:56.058Z,24.00
2022-08-18T03:36:27.975Z,23.70
2022-08-18T03:38:55.224Z,23.87
2022-08-18T03:41:44.460Z,23.57
2022-08-18T03:44:11.698Z,24.10
2022-08-18T03:46:40.652Z,21.90
2022-08-18T03:49:07.840Z,21.73
2022-08-18T03:51:35.005Z,21.23
2022-08-18T03:54:03.201Z,19.93
2022-08-18T03:56:33.535Z,21.00
2022-08-18T03:59:08.120Z,20.00
2022-08-18T04:01:39.367Z,19.53
2022-08-18T04:04:07.542Z,19.10
2022-08-18T04:06:45.735Z,19.33
2022-08-18T04:09:14.907Z,20.80
2022-08-18T04:11:43.379Z,19.80
2022-08-18T04:14:16.017Z,19.30
2022-08-18T04:16:43.491Z,20.50
2022-08-18T04:19:13.500Z,20.20
2022-08-18T04:21:42.150Z,18.70
2022-08-18T04:24:10.541Z,18.33
2022-08-18T04:26:43.024Z,18.17
2022-08-18T04:29:11.009Z,19.20
2022-08-18T04:31:38.212Z,19.50
2022-08-18T04:34:05.828Z,18.87
2022-08-18T04:36:36.752Z,18.53
2022-08-18T04:39:05.285Z,17.70
2022-08-18T04:41:32.510Z,17.83
2022-08-18T04:44:01.436Z,44.53
2022-08-18T04:46:29.149Z,37.87
2022-08-18T04:49:01.299Z,19.17
2022-08-18T04:52:36.565Z,17.67
2022-08-18T04:54:17.509Z,17.27
2022-08-18T04:56:44.597Z,20.43
2022-08-18T04:59:13.392Z,18.57
2022-08-18T05:01:46.044Z,19.83
2022-08-18T05:04:14.181Z,18.97
2022-08-18T05:06:43.228Z,18.97
2022-08-18T05:09:11.029Z,19.20
2022-08-18T05:11:38.985Z,19.80
2022-08-18T05:14:07.828Z,18.87
2022-08-18T05:16:36.487Z,19.87
2022-08-18T05:19:16.000Z,19.07
2022-08-18T05:21:50.868Z,17.57
2022-08-18T05:24:19.257Z,18.03
2022-08-18T05:26:46.830Z,17.23
2022-08-18T05:29:19.060Z,17.83
2022-08-18T05:31:47.198Z,17.43
2022-08-18T05:34:14.363Z,17.73
2022-08-18T05:36:43.363Z,24.50
2022-08-18T05:39:19.468Z,64.27
2022-08-18T05:42:17.663Z,40.80
2022-08-18T05:44:48.940Z,38.57
2022-08-18T05:47:23.397Z,51.17
2022-08-18T05:49:50.837Z,51.87
2022-08-18T05:52:21.193Z,52.57
2022-08-18T05:55:19.553Z,41.53
2022-08-18T05:58:05.452Z,48.93
2022-08-18T06:00:33.741Z,42.83
2022-08-18T06:03:03.667Z,47.73
2022-08-18T06:05:33.216Z,49.17
2022-08-18T06:08:01.480Z,54.03
2022-08-18T06:10:28.695Z,57.67
2022-08-18T06:13:00.448Z,63.20
2022-08-18T06:15:39.567Z,56.63
2022-08-18T06:18:26.477Z,56.73
2022-08-18T06:21:05.576Z,59.57
2022-08-18T06:23:38.496Z,55.93
2022-08-18T06:26:34.393Z,53.27
2022-08-18T06:29:06.894Z,62.23
2022-08-18T06:31:40.761Z,61.07
2022-08-18T06:34:32.251Z,59.57
2022-08-18T06:37:01.750Z,57.67
2022-08-18T06:39:44.211Z,97.30
2022-08-18T06:42:11.578Z,63.20
2022-08-18T06:44:45.428Z,67.20
2022-08-18T06:47:31.417Z,67.73
2022-08-18T06:50:03.526Z,61.63
2022-08-18T06:52:35.953Z,64.93
2022-08-18T06:55:16.833Z,63.50
2022-08-18T06:57:54.948Z,66.77
2022-08-18T07:00:24.409Z,59.37
2022-08-18T07:02:53.959Z,76.03
2022-08-18T07:05:25.536Z,67.90
2022-08-18T07:08:04.379Z,62.13
2022-08-18T07:10:36.281Z,60.23
2022-08-18T07:13:21.240Z,60.63
2022-08-18T07:15:49.784Z,57.50
2022-08-18T07:18:22.841Z,53.73
2022-08-18T07:20:54.338Z,57.50
2022-08-18T07:23:23.576Z,56.93
2022-08-18T07:25:52.331Z,54.90
2022-08-18T07:28:37.043Z,50.63
2022-08-18T07:31:16.896Z,46.83
2022-08-18T07:33:48.540Z,44.30
2022-08-18T07:36:16.783Z,43.33
2022-08-18T07:38:49.064Z,44.63
2022-08-18T07:41:20.469Z,36.90
2022-08-18T07:43:53.598Z,37.50
2022-08-18T07:46:35.949Z,37.73
2022-08-18T07:49:05.529Z,35.90
2022-08-18T07:51:53.355Z,35.80
2022-08-18T07:54:48.160Z,36.10
2022-08-18T07:57:20.145Z,36.40
2022-08-18T07:59:50.856Z,134.03
2022-08-18T08:02:36.503Z,45.60
2022-08-18T08:05:25.820Z,34.97
2022-08-18T08:07:57.420Z,37.63
2022-08-18T08:10:43.404Z,38.90
2022-08-18T08:13:43.899Z,37.70
2022-08-18T08:16:14.641Z,37.10
2022-08-18T08:18:46.889Z,40.23
2022-08-18T08:21:18.572Z,42.80
2022-08-18T08:23:45.701Z,40.87
2022-08-18T08:26:18.924Z,45.90
2022-08-18T08:28:46.088Z,43.07
2022-08-18T08:31:37.226Z,41.37
2022-08-18T08:34:06.086Z,41.90
2022-08-18T08:36:36.338Z,38.47
2022-08-18T08:39:22.416Z,37.10
2022-08-18T08:41:52.316Z,35.50
2022-08-18T08:44:25.600Z,37.13
2022-08-18T08:46:57.234Z,34.77
2022-08-18T08:49:28.180Z,35.10
2022-08-18T08:51:58.477Z,37.30
2022-08-18T08:54:45.035Z,36.87
2022-08-18T08:57:13.552Z,38.77
2022-08-18T08:59:41.404Z,36.60
2022-08-18T09:02:46.672Z,35.47
2022-08-18T09:05:26.344Z,31.90
2022-08-18T09:08:00.559Z,31.53
2022-08-18T09:10:36.804Z,29.90
2022-08-18T09:13:03.897Z,31.57
2022-08-18T09:15:53.221Z,27.10
2022-08-18T09:18:34.867Z,29.30
2022-08-18T09:21:20.045Z,31.97
2022-08-18T09:23:48.629Z,34.73
2022-08-18T09:26:23.113Z,30.00
2022-08-18T09:29:00.620Z,35.03
2022-08-18T09:31:31.740Z,40.33
2022-08-18T09:34:10.671Z,71.60
2022-08-18T09:36:44.291Z,41.40
2022-08-18T09:39:42.071Z,36.17
2022-08-18T09:42:11.820Z,35.73
2022-08-18T09:47:30.324Z,34.67
2022-08-18T09:50:06.731Z,32.77
2022-08-18T09:50:38.297Z,31.47
2022-08-18T09:52:33.860Z,30.43
2022-08-18T09:55:27.770Z,30.10
2022-08-18T09:58:17.273Z,28.10
2022-08-18T10:00:44.986Z,29.93
2022-08-18T10:03:13.726Z,30.27
2022-08-18T10:05:42.019Z,30.27
2022-08-18T10:08:21.221Z,32.40
2022-08-18T10:11:01.478Z,33.70
2022-08-18T10:13:52.567Z,29.27
2022-08-18T10:16:22.713Z,33.20
2022-08-18T10:18:57.549Z,31.45
2022-08-18T10:24:36.190Z,30.33
2022-08-18T10:27:05.932Z,33.73
2022-08-18T10:29:42.113Z,29.45
2022-08-18T10:32:14.271Z,29.90
2022-08-18T10:34:56.026Z,30.05
2022-08-18T10:37:41.962Z,26.58
2022-08-18T10:40:13.038Z,31.33
2022-08-18T10:42:53.355Z,33.20
2022-08-18T10:45:26.635Z,61.72
2022-08-18T10:48:16.856Z,31.92
2022-08-18T10:50:44.452Z,27.75
2022-08-18T10:56:30.344Z,26.98
2022-08-18T10:59:17.140Z,28.05
2022-08-18T11:02:05.159Z,25.95
2022-08-18T11:04:42.045Z,28.80
2022-08-18T11:07:11.567Z,29.52
2022-08-18T11:09:41.561Z,31.38
2022-08-18T11:12:09.628Z,26.52
2022-08-18T11:14:54.344Z,24.77
2022-08-18T11:17:40.450Z,26.77
2022-08-18T11:20:10.485Z,28.23
2022-08-18T11:22:38.214Z,29.88
2022-08-18T11:25:18.826Z,35.35
2022-08-18T11:27:48.483Z,31.67
2022-08-18T11:30:17.238Z,29.70
2022-08-18T11:32:52.021Z,30.30
2022-08-18T11:35:34.367Z,39.55
2022-08-18T11:38:05.948Z,40.45
2022-08-18T11:43:40.920Z,64.82
2022-08-18T11:46:14.444Z,39.05
2022-08-18T11:48:52.208Z,41.03
2022-08-18T11:51:23.889Z,38.15
2022-08-18T11:53:58.204Z,35.22
2022-08-18T11:56:38.466Z,35.63
2022-08-18T11:59:07.713Z,33.08
2022-08-18T12:01:44.250Z,33.42
2022-08-18T12:04:16.530Z,35.90
2022-08-18T12:06:59.386Z,34.95
2022-08-18T12:12:24.437Z,32.53
2022-08-18T12:15:02.975Z,31.95
2022-08-18T12:17:39.107Z,29.70
2022-08-18T12:20:08.646Z,31.40
2022-08-18T12:22:44.284Z,34.55
2022-08-18T12:25:13.772Z,36.13
2022-08-18T12:27:41.317Z,154.07
2022-08-18T12:33:05.493Z,31.55
2022-08-18T12:35:37.552Z,29.63
2022-08-18T12:38:13.416Z,31.05
2022-08-18T12:40:42.001Z,31.08
2022-08-18T12:43:09.251Z,33.45
2022-08-18T12:45:38.188Z,32.22
2022-08-18T12:50:55.857Z,27.65
2022-08-18T12:53:29.804Z,26.33
2022-08-18T12:56:11.210Z,26.00
2022-08-18T12:58:40.539Z,27.50
2022-08-18T13:01:07.934Z,26.77
2022-08-18T13:03:36.920Z,25.13
2022-08-18T13:06:04.622Z,26.27
2022-08-18T13:08:38.034Z,23.50
2022-08-18T13:11:21.419Z,25.25
2022-08-18T13:13:52.919Z,25.55
2022-08-18T13:16:39.067Z,24.92
2022-08-18T13:19:11.761Z,23.80
2022-08-18T13:21:41.346Z,24.70
2022-08-18T13:24:10.184Z,25.80
2022-08-18T13:26:41.942Z,22.33
2022-08-18T13:29:10.318Z,20.83
2022-08-18T13:31:58.687Z,23.85
2022-08-18T13:34:30.164Z,30.42
2022-08-18T13:36:57.717Z,25.38
2022-08-18T13:39:25.255Z,23.17
2022-08-18T13:42:01.646Z,24.20
2022-08-18T13:44:52.920Z,23.20
2022-08-18T13:47:20.694Z,23.70
2022-08-18T13:49:57.946Z,22.55
2022-08-18T13:52:34.230Z,21.15
2022-08-18T13:55:03.249Z,19.65
2022-08-18T13:57:36.244Z,20.05
2022-08-18T14:00:05.294Z,19.48
2022-08-18T14:02:32.511Z,20.10
2022-08-18T14:05:00.082Z,20.67
2022-08-18T14:07:27.772Z,20.05
2022-08-18T14:09:55.910Z,19.73
2022-08-18T14:12:28.330Z,19.85
2022-08-18T14:14:58.275Z,20.23
2022-08-18T14:17:26.013Z,18.83
2022-08-18T14:20:21.131Z,18.55
2022-08-18T14:23:09.445Z,18.40
2022-08-18T14:25:55.642Z,17.83
2022-08-18T14:28:24.706Z,17.02
2022-08-18T14:30:54.524Z,12.68
2022-08-18T14:33:34.338Z,17.05
2022-08-18T14:36:10.216Z,8.52
2022-08-18T14:38:38.498Z,8.60
2022-08-18T14:41:07.672Z,7.47
2022-08-18T14:44:10.910Z,6.32
2022-08-18T14:46:23.726Z,7.05
2022-08-18T14:48:57.519Z,6.60
2022-08-18T14:51:27.234Z,6.90
2022-08-18T14:53:55.215Z,6.28
2022-08-18T14:56:23.433Z,5.93
2022-08-18T14:58:55.796Z,8.00
2022-08-18T15:01:23.610Z,6.15
2022-08-18T15:03:50.764Z,6.05
2022-08-18T15:06:27.085Z,7.38
2022-08-18T15:08:55.020Z,6.90
2022-08-18T15:11:24.749Z,7.03
2022-08-18T15:13:55.075Z,5.75
2022-08-18T15:16:27.166Z,5.30
2022-08-18T15:18:59.541Z,5.50
2022-08-18T15:21:46.880Z,4.88
2022-08-18T15:24:33.892Z,5.57
2022-08-18T15:27:10.394Z,6.07
2022-08-18T15:29:41.548Z,8.70
2022-08-18T15:32:15.242Z,5.57
2022-08-18T15:34:47.140Z,4.65
2022-08-18T15:37:19.429Z,4.47
2022-08-18T15:39:51.954Z,7.82
2022-08-18T15:42:23.424Z,4.07
2022-08-18T15:44:52.636Z,5.43
2022-08-18T15:47:21.259Z,3.83
2022-08-18T15:49:48.592Z,5.00
2022-08-18T15:52:17.849Z,4.10
2022-08-18T15:54:50.410Z,4.15
2022-08-18T15:57:38.550Z,4.20
2022-08-18T16:00:06.176Z,4.20
2022-08-18T16:02:33.614Z,4.88
2022-08-18T16:05:10.214Z,4.75
2022-08-18T16:07:41.087Z,5.07
2022-08-18T16:10:12.157Z,6.53
2022-08-18T16:12:45.920Z,8.45
2022-08-18T16:15:14.124Z,6.90
2022-08-18T16:17:47.745Z,5.18
2022-08-18T16:20:15.389Z,5.53
2022-08-18T16:22:43.352Z,6.78
2022-08-18T16:25:10.509Z,5.88
2022-08-18T16:27:41.459Z,6.03
2022-08-18T16:30:10.055Z,5.90
2022-08-18T16:32:37.196Z,6.47
2022-08-18T16:35:04.992Z,6.25
2022-08-18T16:37:32.113Z,5.95
2022-08-18T16:39:59.334Z,6.78
2022-08-18T16:42:26.652Z,6.28
2022-08-18T16:44:53.791Z,6.28
2022-08-18T16:47:20.895Z,6.63
2022-08-18T16:49:49.615Z,6.30
2022-08-18T16:52:17.137Z,6.70
2022-08-18T16:54:45.309Z,6.15
2022-08-18T16:57:12.455Z,6.05
2022-08-18T16:59:58.814Z,6.65
2022-08-18T17:02:44.820Z,6.68
2022-08-18T17:05:12.188Z,6.63
2022-08-18T17:07:39.321Z,6.55
2022-08-18T17:10:07.059Z,7.47
2022-08-18T17:12:34.290Z,8.50
2022-08-18T17:15:02.318Z,7.00
2022-08-18T17:17:29.835Z,7.63
2022-08-18T17:19:56.948Z,9.13
2022-08-18T17:22:24.095Z,22.08
2022-08-18T17:24:54.484Z,23.60
2022-08-18T17:27:27.549Z,11.70
2022-08-18T17:29:56.355Z,9.32
2022-08-18T17:32:32.211Z,9.18
2022-08-18T17:35:03.723Z,7.13
2022-08-18T17:37:31.080Z,7.00
2022-08-18T17:40:03.776Z,6.65
2022-08-18T17:42:33.340Z,6.63
2022-08-18T17:45:05.436Z,6.63
2022-08-18T17:47:34.328Z,6.72
2022-08-18T17:50:27.759Z,6.00
2022-08-18T17:53:00.452Z,7.80
2022-08-18T17:55:30.813Z,7.10
2022-08-18T17:58:01.724Z,9.15
2022-08-18T18:00:31.180Z,30.27
2022-08-18T18:02:58.367Z,11.00
2022-08-18T18:05:29.214Z,6.75
2022-08-18T18:07:58.293Z,6.80
2022-08-18T18:10:51.093Z,5.25
2022-08-18T18:13:32.206Z,4.97
2022-08-18T18:16:01.321Z,5.70
2022-08-18T18:18:35.172Z,7.35
2022-08-18T18:21:05.692Z,8.57
2022-08-18T18:23:35.476Z,5.15
2022-08-18T18:26:20.120Z,5.30
2022-08-18T18:28:47.272Z,5.63
2022-08-18T18:31:32.672Z,65.00
2022-08-18T18:34:06.846Z,14.65
2022-08-18T18:36:50.291Z,6.03
2022-08-18T18:39:33.629Z,7.68
2022-08-18T18:42:19.280Z,7.00
2022-08-18T18:44:51.894Z,5.95
2022-08-18T18:47:28.229Z,6.53
2022-08-18T18:50:08.273Z,5.50
2022-08-18T18:52:50.870Z,5.95
2022-08-18T18:55:28.671Z,5.45
2022-08-18T18:58:14.649Z,6.13
2022-08-18T19:00:41.946Z,7.53
2022-08-18T19:03:18.236Z,5.38
2022-08-18T19:06:03.793Z,5.10
2022-08-18T19:08:33.175Z,6.70
2022-08-18T19:11:05.234Z,7.97
2022-08-18T19:13:35.744Z,9.25
2022-08-18T19:16:26.355Z,5.90
2022-08-18T19:18:57.900Z,5.70
2022-08-18T19:22:03.535Z,8.20
2022-08-18T19:24:32.433Z,6.28
2022-08-18T19:27:01.901Z,7.23
2022-08-18T19:29:32.418Z,5.65
2022-08-18T19:32:04.758Z,5.53
2022-08-18T19:34:33.773Z,6.63
2022-08-18T19:37:24.507Z,6.27
2022-08-18T19:39:58.763Z,36.63
2022-08-18T19:42:35.371Z,7.67
2022-08-18T19:45:21.620Z,11.60
2022-08-18T19:47:56.641Z,6.00
2022-08-18T19:50:32.118Z,9.33
2022-08-18T19:53:28.532Z,8.60
2022-08-18T19:56:15.909Z,7.13
2022-08-18T19:59:18.112Z,5.73
2022-08-18T20:02:05.053Z,6.47
2022-08-18T20:04:39.810Z,6.70
2022-08-18T20:07:22.402Z,8.10
2022-08-18T20:10:22.220Z,6.13
2022-08-18T20:12:56.654Z,20.57
2022-08-18T20:15:25.185Z,56.73
2022-08-18T20:17:58.301Z,13.63
2022-08-18T20:20:27.565Z,8.07
2022-08-18T20:22:57.362Z,9.37
2022-08-18T20:25:24.747Z,7.50
2022-08-18T20:27:53.248Z,7.40
2022-08-18T20:30:20.379Z,7.10
2022-08-18T20:33:03.181Z,7.13
2022-08-18T20:35:33.988Z,7.27
2022-08-18T20:38:36.305Z,7.00
2022-08-18T20:41:21.822Z,8.60
2022-08-18T20:43:50.201Z,8.90
2022-08-18T20:46:43.074Z,7.90
2022-08-18T20:49:26.136Z,7.40
2022-08-18T20:52:04.152Z,7.47
2022-08-18T20:54:57.595Z,7.73
2022-08-18T20:57:26.811Z,7.43
2022-08-18T21:00:02.754Z,7.73
2022-08-18T21:02:43.496Z,6.40
2022-08-18T21:05:15.967Z,7.47
2022-08-18T21:08:19.813Z,7.73
2022-08-18T21:10:53.073Z,8.13
2022-08-18T21:13:39.475Z,7.50
2022-08-18T21:16:10.957Z,8.20
2022-08-18T21:18:39.434Z,8.93
2022-08-18T21:21:08.685Z,8.37
2022-08-18T21:23:37.591Z,8.37
2022-08-18T21:26:06.402Z,8.23
2022-08-18T21:28:54.387Z,8.00
2022-08-18T21:31:29.218Z,7.77
2022-08-18T21:34:19.631Z,7.73
2022-08-18T21:36:51.120Z,8.00
2022-08-18T21:39:19.557Z,8.90
2022-08-18T21:41:48.497Z,8.00
2022-08-18T21:44:18.462Z,8.60
2022-08-18T21:47:09.978Z,8.23
2022-08-18T21:49:37.686Z,8.70
2022-08-18T21:52:04.907Z,8.20
2022-08-18T21:54:34.610Z,7.83
2022-08-18T21:57:22.022Z,8.00
2022-08-18T22:00:08.286Z,9.80
2022-08-18T22:02:35.404Z,8.27
2022-08-18T22:05:02.564Z,9.53
2022-08-18T22:07:34.771Z,9.93
2022-08-18T22:10:26.280Z,8.83
2022-08-18T22:13:13.117Z,9.70
2022-08-18T22:15:42.629Z,9.67
2022-08-18T22:18:18.943Z,12.23
2022-08-18T22:20:46.088Z,9.00
2022-08-18T22:23:34.755Z,9.47
2022-08-18T22:26:26.288Z,11.03
2022-08-18T22:29:13.113Z,9.93
2022-08-18T22:31:44.573Z,9.93
2022-08-18T22:34:13.567Z,11.03
2022-08-18T22:36:46.139Z,11.07
2022-08-18T22:39:14.313Z,10.87
2022-08-18T22:41:41.993Z,9.97
2022-08-18T22:44:10.282Z,9.37
2022-08-18T22:46:37.511Z,9.57
2022-08-18T22:49:05.092Z,10.03
2022-08-18T22:51:32.803Z,11.00
2022-08-18T22:54:00.277Z,9.93
2022-08-18T22:56:35.150Z,10.50
2022-08-18T22:59:13.383Z,11.40
2022-08-18T23:01:41.795Z,11.60
2022-08-18T23:04:08.976Z,11.70
2022-08-18T23:06:36.753Z,10.93
2022-08-18T23:09:04.644Z,12.80
2022-08-18T23:11:32.023Z,11.77
2022-08-18T23:14:02.540Z,11.50
2022-08-18T23:16:31.938Z,11.60
2022-08-18T23:19:01.995Z,12.60
2022-08-18T23:21:34.091Z,14.40
2022-08-18T23:24:02.219Z,13.10
2022-08-18T23:26:30.546Z,13.70
2022-08-18T23:28:58.364Z,14.13
2022-08-18T23:31:25.489Z,14.17
2022-08-18T23:33:52.577Z,13.03
2022-08-18T23:36:19.671Z,13.70
2022-08-18T23:38:46.789Z,13.60
2022-08-18T23:41:14.916Z,14.97
2022-08-18T23:43:42.359Z,13.80
2022-08-18T23:46:23.721Z,14.57
2022-08-18T23:48:51.594Z,14.37
2022-08-18T23:51:24.968Z,14.77
2022-08-18T23:53:53.416Z,14.57
2022-08-18T23:56:20.584Z,14.27
2022-08-18T23:58:56.376Z,13.37
